createdAt,value
2022-12-29T00:04:15.147Z,98156.91
2022-12-29T00:14:35.605Z,98138.16
2022-12-29T00:24:55.825Z,98129.50
2022-12-29T00:35:09.083Z,98119.00
2022-12-29T00:45:10.523Z,98100.47
2022-12-29T00:55:12.017Z,98094.50
2022-12-29T01:05:13.487Z,98095.09
2022-12-29T01:15:15.324Z,98097.78
2022-12-29T01:25:16.777Z,98095.09
2022-12-29T01:35:19.792Z,98118.19
2022-12-29T01:45:21.343Z,98086.88
2022-12-29T01:55:22.901Z,98093.03
2022-12-29T02:05:25.893Z,98074.28
2022-12-29T02:15:51.264Z,98070.59
2022-12-29T02:26:28.795Z,98057.81
2022-12-29T02:36:45.368Z,98040.91
2022-12-29T02:46:50.303Z,98046.25
2022-12-29T02:56:51.668Z,98030.19
2022-12-29T03:06:57.301Z,98021.97
2022-12-29T03:17:01.265Z,98018.41
2022-12-29T03:27:04.515Z,97998.53
2022-12-29T03:37:11.216Z,97995.69
2022-12-29T03:47:13.017Z,97992.22
2022-12-29T03:57:14.552Z,97984.41
2022-12-29T04:07:15.938Z,97979.72
2022-12-29T04:17:17.309Z,97977.34
2022-12-29T04:27:19.808Z,97964.44
2022-12-29T04:37:21.289Z,97958.34
2022-12-29T04:47:22.657Z,97976.88
2022-12-29T04:57:24.031Z,97981.06
2022-12-29T05:07:26.100Z,97981.50
2022-12-29T05:17:27.496Z,97984.25
2022-12-29T05:27:29.078Z,97998.56
2022-12-29T05:37:30.464Z,98006.25
2022-12-29T05:47:31.871Z,98012.94
2022-12-29T05:57:33.419Z,98014.34
2022-12-29T06:07:34.801Z,98022.19
2022-12-29T06:17:36.365Z,98017.88
2022-12-29T06:27:37.750Z,98007.47
2022-12-29T06:37:39.146Z,98027.38
2022-12-29T06:47:40.697Z,98034.72
2022-12-29T06:57:42.073Z,98031.50
2022-12-29T07:07:43.471Z,98035.09
2022-12-29T07:17:44.843Z,98043.50
2022-12-29T07:27:46.620Z,98069.31
2022-12-29T07:37:48.011Z,98083.16
2022-12-29T07:47:50.363Z,98095.91
2022-12-29T07:57:54.404Z,98117.75
2022-12-29T08:07:55.920Z,98125.34
2022-12-29T08:17:57.445Z,98130.94
2022-12-29T08:27:58.968Z,98142.97
2022-12-29T08:38:00.512Z,98135.28
2022-12-29T08:48:01.887Z,98150.84
2022-12-29T08:58:03.254Z,98153.09
2022-12-29T09:08:05.368Z,98168.63
2022-12-29T09:18:07.748Z,98182.28
2022-12-29T09:28:09.129Z,98199.22
2022-12-29T09:38:10.621Z,98223.19
2022-12-29T09:48:33.245Z,98232.59
2022-12-29T09:59:00.411Z,98231.63
2022-12-29T10:09:26.472Z,98236.09
2022-12-29T10:20:02.349Z,98222.09
2022-12-29T10:30:04.131Z,98237.75
2022-12-29T10:40:19.342Z,98229.47
2022-12-29T10:50:20.807Z,98237.28
2022-12-29T11:00:22.709Z,98250.13
2022-12-29T11:10:34.514Z,98250.97
2022-12-29T11:20:38.404Z,98248.06
2022-12-29T11:30:39.974Z,98256.72
2022-12-29T11:40:41.620Z,98281.50
2022-12-29T11:50:43.142Z,98281.72
2022-12-29T12:00:45.293Z,98303.47
2022-12-29T12:10:57.451Z,98304.28
2022-12-29T12:21:18.556Z,98302.44
2022-12-29T12:31:26.446Z,98308.00
2022-12-29T12:41:31.679Z,98315.88
2022-12-29T12:51:47.167Z,98325.94
2022-12-29T13:02:10.351Z,98335.66
2022-12-29T13:12:33.300Z,98333.78
2022-12-29T13:22:39.821Z,98331.78
2022-12-29T13:32:41.109Z,98325.06
2022-12-29T13:42:42.639Z,98331.75
2022-12-29T13:52:59.078Z,98330.53
2022-12-29T14:03:20.416Z,98342.19
2022-12-29T14:13:24.921Z,98346.81
2022-12-29T14:23:42.627Z,98343.16
2022-12-29T14:34:07.013Z,98372.41
2022-12-29T14:44:08.238Z,98384.63
2022-12-29T14:54:34.313Z,98400.59
2022-12-29T15:04:36.312Z,98413.25
2022-12-29T15:14:39.402Z,98408.53
2022-12-29T15:24:45.149Z,98423.66
2022-12-29T15:34:48.642Z,98429.22
2022-12-29T15:44:57.775Z,98438.16
2022-12-29T15:55:05.042Z,98447.91
2022-12-29T16:05:17.544Z,98459.31
2022-12-29T16:15:19.815Z,98454.34
2022-12-29T16:25:29.996Z,98456.66
2022-12-29T16:35:46.400Z,98468.28
2022-12-29T16:46:30.642Z,98461.63
2022-12-29T16:56:33.875Z,98467.66
2022-12-29T17:06:35.254Z,98496.78
2022-12-29T17:16:36.655Z,98513.31
2022-12-29T17:26:38.040Z,98526.72
2022-12-29T17:36:39.564Z,98537.50
2022-12-29T17:46:41.158Z,98537.09
2022-12-29T17:56:42.629Z,98539.75
2022-12-29T18:06:44.214Z,98546.78
2022-12-29T18:16:45.765Z,98549.72
2022-12-29T18:26:47.138Z,98570.53
2022-12-29T18:36:48.516Z,98585.63
2022-12-29T18:46:50.331Z,98600.28
2022-12-29T18:56:51.741Z,98606.91
2022-12-29T19:06:53.282Z,98606.50
2022-12-29T19:16:54.797Z,98611.47
2022-12-29T19:26:56.326Z,98619.09
2022-12-29T19:36:57.857Z,98624.25
2022-12-29T19:46:59.283Z,98637.03
2022-12-29T19:57:00.700Z,98643.88
2022-12-29T20:07:02.105Z,98652.31
2022-12-29T20:17:11.351Z,98676.25
2022-12-29T20:27:13.433Z,98687.59
2022-12-29T20:37:17.076Z,98705.09
2022-12-29T20:47:18.662Z,98711.91
2022-12-29T20:57:20.210Z,98722.44
2022-12-29T21:07:21.581Z,98718.72
2022-12-29T21:17:22.954Z,98716.22
2022-12-29T21:27:24.336Z,98721.16
2022-12-29T21:37:25.712Z,98727.75
2022-12-29T21:47:47.061Z,98730.22
2022-12-29T21:58:06.972Z,98736.19
2022-12-29T22:08:26.748Z,98728.94
2022-12-29T22:18:28.140Z,98746.03
2022-12-29T22:28:29.670Z,98753.28
2022-12-29T22:38:31.139Z,98759.84
2022-12-29T22:48:33.148Z,98766.63
2022-12-29T22:58:34.593Z,98782.09
2022-12-29T23:08:37.059Z,98791.16
2022-12-29T23:18:38.431Z,98808.66
2022-12-29T23:28:39.819Z,98810.28
2022-12-29T23:38:41.217Z,98830.06
2022-12-29T23:48:42.807Z,98852.91
2022-12-29T23:58:44.342Z,98866.50
